createdAt,value
2022-07-26T00:01:03.348Z,22.45
2022-07-26T00:03:06.303Z,22.39
2022-07-26T00:05:10.340Z,19.68
2022-07-26T00:07:13.161Z,21.71
2022-07-26T00:09:16.070Z,21.82
2022-07-26T00:11:21.359Z,18.13
2022-07-26T00:13:24.398Z,21.99
2022-07-26T00:15:32.115Z,22.02
2022-07-26T00:17:35.054Z,21.75
2022-07-26T00:19:37.950Z,21.52
2022-07-26T00:21:41.183Z,21.69
2022-07-26T00:23:44.101Z,21.73
2022-07-26T00:25:47.450Z,21.32
2022-07-26T00:27:52.142Z,20.77
2022-07-26T00:29:54.942Z,21.77
2022-07-26T00:31:57.845Z,21.57
2022-07-26T00:34:00.738Z,21.42
2022-07-26T00:36:03.631Z,21.55
2022-07-26T00:38:06.732Z,21.73
2022-07-26T00:40:12.850Z,21.62
2022-07-26T00:42:15.662Z,21.71
2022-07-26T00:44:19.832Z,21.82
2022-07-26T00:46:22.674Z,21.73
2022-07-26T00:48:25.818Z,21.67
2022-07-26T00:50:28.740Z,21.31
2022-07-26T00:52:31.598Z,21.52
2022-07-26T00:54:34.668Z,17.77
2022-07-26T00:56:37.487Z,21.41
2022-07-26T00:58:40.276Z,21.46
2022-07-26T01:00:45.755Z,21.29
2022-07-26T01:02:49.205Z,21.25
2022-07-26T01:04:52.539Z,21.39
2022-07-26T01:06:56.172Z,21.54
2022-07-26T01:08:59.227Z,21.69
2022-07-26T01:11:04.048Z,20.67
2022-07-26T01:13:07.185Z,21.39
2022-07-26T01:15:11.990Z,21.62
2022-07-26T01:17:16.591Z,21.48
2022-07-26T01:19:19.616Z,21.58
2022-07-26T01:21:22.952Z,21.42
2022-07-26T01:23:27.600Z,21.46
2022-07-26T01:25:31.782Z,21.54
2022-07-26T01:27:39.245Z,21.95
2022-07-26T01:29:42.361Z,22.28
2022-07-26T01:31:45.163Z,22.01
2022-07-26T01:33:48.009Z,19.28
2022-07-26T01:35:50.847Z,21.70
2022-07-26T01:37:54.158Z,21.91
2022-07-26T01:39:58.336Z,22.00
2022-07-26T01:42:01.240Z,22.11
2022-07-26T01:44:04.635Z,21.47
2022-07-26T01:46:13.711Z,22.10
2022-07-26T01:48:19.307Z,22.27
2022-07-26T01:50:23.530Z,22.15
2022-07-26T01:52:27.687Z,22.12
2022-07-26T01:54:30.885Z,22.22
2022-07-26T01:56:35.341Z,22.13
2022-07-26T01:58:38.234Z,19.19
2022-07-26T02:00:41.476Z,21.79
2022-07-26T02:02:45.948Z,21.82
2022-07-26T02:05:02.081Z,21.96
2022-07-26T02:07:08.620Z,21.54
2022-07-26T02:09:16.121Z,21.73
2022-07-26T02:11:19.957Z,22.12
2022-07-26T02:13:24.218Z,21.91
2022-07-26T02:15:27.430Z,21.82
2022-07-26T02:17:30.434Z,22.06
2022-07-26T02:19:33.590Z,22.39
2022-07-26T02:21:36.518Z,21.65
2022-07-26T02:23:41.224Z,21.81
2022-07-26T02:25:45.211Z,21.68
2022-07-26T02:27:48.103Z,21.79
2022-07-26T02:29:52.517Z,21.78
2022-07-26T02:31:56.691Z,21.95
2022-07-26T02:33:59.545Z,22.05
2022-07-26T02:36:02.417Z,22.01
2022-07-26T02:38:07.024Z,22.02
2022-07-26T02:40:16.878Z,20.96
2022-07-26T02:42:21.806Z,21.19
2022-07-26T02:44:25.077Z,19.69
2022-07-26T02:46:29.439Z,20.97
2022-07-26T02:48:32.748Z,21.10
2022-07-26T02:50:39.182Z,21.01
2022-07-26T02:52:42.216Z,20.68
2022-07-26T02:54:45.547Z,20.83
2022-07-26T02:56:48.339Z,21.10
2022-07-26T02:58:51.142Z,18.73
2022-07-26T03:00:54.247Z,20.54
2022-07-26T03:02:58.950Z,21.30
2022-07-26T03:05:02.348Z,21.25
2022-07-26T03:07:05.155Z,21.50
2022-07-26T03:09:07.989Z,18.43
2022-07-26T03:11:12.246Z,20.75
2022-07-26T03:13:15.713Z,18.72
2022-07-26T03:15:18.574Z,21.23
2022-07-26T03:17:21.373Z,21.06
2022-07-26T03:19:25.635Z,21.06
2022-07-26T03:21:28.961Z,20.99
2022-07-26T03:23:34.463Z,18.86
2022-07-26T03:25:37.811Z,20.50
2022-07-26T03:27:40.775Z,19.97
2022-07-26T03:29:43.606Z,20.50
2022-07-26T03:31:46.376Z,20.20
2022-07-26T03:33:49.228Z,21.18
2022-07-26T03:35:53.428Z,21.28
2022-07-26T03:37:57.634Z,20.84
2022-07-26T03:40:00.610Z,20.07
2022-07-26T03:42:03.495Z,20.78
2022-07-26T03:44:07.321Z,20.46
2022-07-26T03:46:10.535Z,21.15
2022-07-26T03:48:13.458Z,21.32
2022-07-26T03:50:16.519Z,21.43
2022-07-26T03:52:23.030Z,21.25
2022-07-26T03:54:25.871Z,20.84
2022-07-26T03:56:32.057Z,21.10
2022-07-26T03:58:34.966Z,21.33
2022-07-26T04:00:37.801Z,21.11
2022-07-26T04:02:40.793Z,20.74
2022-07-26T04:04:43.729Z,20.93
2022-07-26T04:06:49.429Z,21.06
2022-07-26T04:08:54.993Z,14.53
2022-07-26T04:10:57.835Z,20.91
2022-07-26T04:13:00.695Z,20.31
2022-07-26T04:15:03.671Z,20.05
2022-07-26T04:17:06.746Z,19.83
2022-07-26T04:19:09.625Z,20.08
2022-07-26T04:21:12.486Z,19.59
2022-07-26T04:23:15.567Z,17.76
2022-07-26T04:25:19.873Z,17.56
2022-07-26T04:27:22.711Z,18.54
2022-07-26T04:29:25.510Z,18.79
2022-07-26T04:31:28.439Z,18.90
2022-07-26T04:33:39.418Z,18.78
2022-07-26T04:35:42.351Z,19.25
2022-07-26T04:37:46.669Z,19.84
2022-07-26T04:39:54.797Z,19.92
2022-07-26T04:41:59.192Z,19.94
2022-07-26T04:44:02.026Z,18.59
2022-07-26T04:46:05.083Z,19.87
2022-07-26T04:48:08.482Z,19.81
2022-07-26T04:50:11.929Z,19.25
2022-07-26T04:52:14.811Z,19.54
2022-07-26T04:54:20.675Z,19.72
2022-07-26T04:56:23.607Z,19.57
2022-07-26T04:58:28.434Z,19.84
2022-07-26T05:00:31.362Z,19.69
2022-07-26T05:02:34.257Z,19.68
2022-07-26T05:04:37.113Z,19.66
2022-07-26T05:06:39.914Z,19.62
2022-07-26T05:08:43.375Z,19.17
2022-07-26T05:10:47.780Z,19.38
2022-07-26T05:12:52.229Z,19.48
2022-07-26T05:14:56.308Z,19.59
2022-07-26T05:16:59.135Z,19.38
2022-07-26T05:19:12.003Z,19.16
2022-07-26T05:21:14.814Z,19.49
2022-07-26T05:23:17.718Z,19.55
2022-07-26T05:25:20.738Z,19.67
2022-07-26T05:27:23.513Z,19.57
2022-07-26T05:29:26.950Z,17.55
2022-07-26T05:31:31.265Z,19.52
2022-07-26T05:33:34.159Z,19.31
2022-07-26T05:35:37.036Z,19.33
2022-07-26T05:37:40.361Z,19.55
2022-07-26T05:39:43.452Z,19.43
2022-07-26T05:41:46.331Z,19.04
2022-07-26T05:43:49.329Z,18.87
2022-07-26T05:45:52.300Z,19.68
2022-07-26T05:47:56.671Z,19.57
2022-07-26T05:49:59.465Z,19.65
2022-07-26T05:52:02.270Z,19.61
2022-07-26T05:54:05.525Z,19.29
2022-07-26T05:56:08.868Z,19.83
2022-07-26T05:58:11.752Z,19.83
2022-07-26T06:00:15.276Z,19.92
2022-07-26T06:02:18.194Z,20.01
2022-07-26T06:04:22.398Z,20.27
2022-07-26T06:06:28.117Z,20.18
2022-07-26T06:08:31.074Z,20.08
2022-07-26T06:10:33.878Z,19.84
2022-07-26T06:12:36.737Z,19.94
2022-07-26T06:14:39.728Z,20.19
2022-07-26T06:16:42.645Z,20.19
2022-07-26T06:18:45.620Z,20.11
2022-07-26T06:20:50.179Z,19.72
2022-07-26T06:22:53.005Z,20.10
2022-07-26T06:24:55.743Z,20.20
2022-07-26T06:27:05.380Z,20.05
2022-07-26T06:29:08.546Z,20.23
2022-07-26T06:31:11.720Z,19.79
2022-07-26T06:33:14.867Z,17.94
2022-07-26T06:35:17.681Z,19.99
2022-07-26T06:37:23.403Z,20.07
2022-07-26T06:39:26.236Z,20.30
2022-07-26T06:41:29.291Z,20.48
2022-07-26T06:43:32.347Z,20.43
2022-07-26T06:45:35.237Z,20.50
2022-07-26T06:47:38.140Z,20.61
2022-07-26T06:49:40.961Z,19.81
2022-07-26T06:51:43.741Z,20.55
2022-07-26T06:53:48.029Z,20.96
2022-07-26T06:55:50.892Z,21.18
2022-07-26T06:57:53.687Z,20.69
2022-07-26T06:59:56.529Z,21.27
2022-07-26T07:02:00.675Z,21.39
2022-07-26T07:04:03.687Z,21.27
2022-07-26T07:06:06.805Z,20.91
2022-07-26T07:08:09.659Z,20.63
2022-07-26T07:10:15.607Z,21.14
2022-07-26T07:12:19.096Z,21.15
2022-07-26T07:14:22.055Z,21.44
2022-07-26T07:16:24.871Z,21.60
2022-07-26T07:18:27.727Z,21.48
2022-07-26T07:20:30.489Z,22.02
2022-07-26T07:22:33.539Z,21.68
2022-07-26T07:24:37.412Z,21.40
2022-07-26T07:26:42.617Z,21.80
2022-07-26T07:28:46.561Z,21.91
2022-07-26T07:30:52.684Z,21.99
2022-07-26T07:32:56.970Z,21.69
2022-07-26T07:35:00.989Z,21.86
2022-07-26T07:37:04.542Z,21.70
2022-07-26T07:39:15.563Z,21.94
2022-07-26T07:41:20.231Z,21.58
2022-07-26T07:43:24.346Z,22.50
2022-07-26T07:45:27.194Z,22.33
2022-07-26T07:47:30.029Z,22.59
2022-07-26T07:49:32.915Z,22.57
2022-07-26T07:51:36.161Z,22.61
2022-07-26T07:53:39.254Z,22.44
2022-07-26T07:55:46.302Z,22.54
2022-07-26T07:57:49.601Z,22.68
2022-07-26T07:59:53.763Z,22.75
2022-07-26T08:01:56.542Z,23.00
2022-07-26T08:03:59.393Z,22.96
2022-07-26T08:06:03.864Z,23.16
2022-07-26T08:08:08.961Z,21.90
2022-07-26T08:10:12.855Z,21.42
2022-07-26T08:12:17.335Z,22.92
2022-07-26T08:14:20.275Z,22.92
2022-07-26T08:16:24.658Z,22.63
2022-07-26T08:18:27.558Z,22.17
2022-07-26T08:20:31.278Z,22.56
2022-07-26T08:22:34.134Z,22.65
2022-07-26T08:24:36.987Z,22.65
2022-07-26T08:26:39.952Z,22.60
2022-07-26T08:28:47.932Z,22.70
2022-07-26T08:30:51.237Z,22.80
2022-07-26T08:32:55.416Z,23.03
2022-07-26T08:35:16.873Z,23.09
2022-07-26T08:37:20.983Z,23.03
2022-07-26T08:39:23.807Z,23.01
2022-07-26T08:41:26.697Z,22.99
2022-07-26T08:43:29.966Z,23.21
2022-07-26T08:45:36.029Z,22.95
2022-07-26T08:48:00.675Z,22.96
2022-07-26T08:50:06.686Z,22.25
2022-07-26T08:52:10.752Z,22.99
2022-07-26T08:54:16.297Z,23.08
2022-07-26T08:56:19.166Z,23.09
2022-07-26T08:58:22.130Z,22.32
2022-07-26T09:00:29.693Z,23.28
2022-07-26T09:02:41.708Z,24.18
2022-07-26T09:04:46.473Z,24.03
2022-07-26T09:06:58.951Z,24.27
2022-07-26T09:09:12.473Z,23.40
2022-07-26T09:11:33.041Z,23.85
2022-07-26T09:13:52.386Z,23.16
2022-07-26T09:16:10.174Z,23.14
2022-07-26T09:18:27.109Z,23.10
2022-07-26T09:20:32.052Z,23.20
2022-07-26T09:22:37.147Z,23.33
2022-07-26T09:24:42.579Z,23.05
2022-07-26T09:26:56.480Z,24.01
2022-07-26T09:29:08.168Z,24.30
2022-07-26T09:31:11.308Z,24.14
2022-07-26T09:33:14.186Z,24.33
2022-07-26T09:35:45.987Z,22.87
2022-07-26T09:37:44.086Z,23.75
2022-07-26T09:39:58.711Z,24.32
2022-07-26T09:42:27.565Z,24.67
2022-07-26T09:44:31.331Z,24.09
2022-07-26T09:46:35.628Z,22.78
2022-07-26T09:49:09.473Z,24.03
2022-07-26T09:51:02.404Z,24.08
2022-07-26T09:53:09.029Z,23.47
2022-07-26T09:55:13.303Z,22.13
2022-07-26T09:57:18.447Z,23.40
2022-07-26T09:59:23.347Z,23.96
2022-07-26T10:01:26.181Z,24.05
2022-07-26T10:03:31.060Z,23.97
2022-07-26T10:05:34.169Z,23.93
2022-07-26T10:07:38.188Z,24.12
2022-07-26T10:09:48.639Z,23.54
2022-07-26T10:11:56.240Z,24.21
2022-07-26T10:13:59.144Z,24.24
2022-07-26T10:16:02.918Z,24.85
2022-07-26T10:18:08.506Z,24.25
2022-07-26T10:20:19.223Z,25.40
2022-07-26T10:22:30.472Z,25.22
2022-07-26T10:24:34.616Z,24.89
2022-07-26T10:26:42.111Z,25.72
2022-07-26T10:28:46.212Z,25.86
2022-07-26T10:30:49.419Z,26.13
2022-07-26T10:33:00.389Z,25.76
2022-07-26T10:35:33.301Z,26.41
2022-07-26T10:37:36.169Z,25.92
2022-07-26T10:39:40.514Z,25.58
2022-07-26T10:41:47.002Z,25.69
2022-07-26T10:44:22.147Z,25.83
2022-07-26T10:46:28.176Z,25.57
2022-07-26T10:48:31.352Z,22.74
2022-07-26T10:50:34.847Z,26.19
2022-07-26T10:52:39.041Z,25.67
2022-07-26T10:55:08.838Z,26.08
2022-07-26T10:57:13.082Z,25.79
2022-07-26T10:59:32.902Z,26.08
2022-07-26T11:01:42.340Z,26.73
2022-07-26T11:03:45.656Z,27.36
2022-07-26T11:05:50.919Z,27.27
2022-07-26T11:08:04.961Z,27.25
2022-07-26T11:10:08.282Z,28.06
2022-07-26T11:12:17.963Z,27.91
2022-07-26T11:14:20.837Z,28.35
2022-07-26T11:16:25.050Z,28.46
2022-07-26T11:18:32.387Z,28.31
2022-07-26T11:20:35.244Z,27.50
2022-07-26T11:22:38.204Z,27.64
2022-07-26T11:24:41.678Z,27.36
2022-07-26T11:26:45.668Z,26.19
2022-07-26T11:28:55.594Z,26.31
2022-07-26T11:30:59.133Z,26.44
2022-07-26T11:33:02.889Z,26.28
2022-07-26T11:35:06.768Z,26.03
2022-07-26T11:37:09.626Z,26.65
2022-07-26T11:39:14.315Z,25.72
2022-07-26T11:41:20.633Z,26.35
2022-07-26T11:43:38.776Z,26.07
2022-07-26T11:45:43.140Z,27.12
2022-07-26T11:47:46.019Z,27.89
2022-07-26T11:49:59.700Z,28.04
2022-07-26T11:52:13.118Z,27.19
2022-07-26T11:54:15.993Z,27.51
2022-07-26T11:56:20.485Z,27.31
2022-07-26T11:58:23.368Z,27.03
2022-07-26T12:00:27.160Z,27.52
2022-07-26T12:02:35.391Z,27.05
2022-07-26T12:04:40.464Z,28.12
2022-07-26T12:06:43.461Z,28.42
2022-07-26T12:08:50.371Z,28.70
2022-07-26T12:10:55.795Z,28.59
2022-07-26T12:13:09.595Z,28.42
2022-07-26T12:15:13.512Z,28.90
2022-07-26T12:17:18.183Z,29.29
2022-07-26T12:19:27.751Z,29.57
2022-07-26T12:21:45.110Z,29.70
2022-07-26T12:23:51.122Z,29.26
2022-07-26T12:25:54.206Z,28.84
2022-07-26T12:27:57.569Z,28.80
2022-07-26T12:30:16.515Z,28.32
2022-07-26T12:32:21.870Z,29.49
2022-07-26T12:34:26.612Z,28.84
2022-07-26T12:36:30.337Z,28.62
2022-07-26T12:38:43.027Z,29.48
2022-07-26T12:40:45.845Z,28.98
2022-07-26T12:43:00.726Z,28.22
2022-07-26T12:45:08.512Z,29.31
2022-07-26T12:47:11.276Z,29.09
2022-07-26T12:49:14.232Z,29.12
2022-07-26T12:51:18.421Z,29.38
2022-07-26T12:53:21.243Z,27.98
2022-07-26T12:55:24.172Z,28.42
2022-07-26T12:57:27.734Z,27.81
2022-07-26T12:59:30.562Z,27.80
2022-07-26T13:01:33.915Z,27.48
2022-07-26T13:03:36.815Z,27.39
2022-07-26T13:05:39.791Z,27.16
2022-07-26T13:07:44.170Z,28.76
2022-07-26T13:09:48.347Z,29.20
2022-07-26T13:11:51.285Z,28.85
2022-07-26T13:13:54.593Z,28.17
2022-07-26T13:15:57.411Z,28.57
2022-07-26T13:18:00.635Z,27.94
2022-07-26T13:20:03.487Z,27.41
2022-07-26T13:22:07.623Z,27.01
2022-07-26T13:24:14.186Z,27.64
2022-07-26T13:26:19.503Z,27.33
2022-07-26T13:28:24.516Z,28.13
2022-07-26T13:30:27.461Z,28.54
2022-07-26T13:32:30.273Z,28.90
2022-07-26T13:34:35.252Z,27.90
2022-07-26T13:36:38.357Z,27.06
2022-07-26T13:38:42.703Z,26.74
2022-07-26T13:40:46.941Z,27.40
2022-07-26T13:42:50.930Z,27.22
2022-07-26T13:44:53.803Z,27.02
2022-07-26T13:46:56.701Z,27.19
2022-07-26T13:49:01.643Z,27.03
2022-07-26T13:51:04.882Z,26.81
2022-07-26T13:53:07.769Z,26.75
2022-07-26T13:55:10.759Z,27.97
2022-07-26T13:57:14.957Z,28.12
2022-07-26T13:59:18.571Z,28.04
2022-07-26T14:01:21.567Z,28.68
2022-07-26T14:03:44.296Z,28.62
2022-07-26T14:05:47.333Z,29.10
2022-07-26T14:07:50.231Z,29.56
2022-07-26T14:09:53.069Z,30.41
2022-07-26T14:11:55.924Z,30.20
2022-07-26T14:14:00.227Z,29.48
2022-07-26T14:16:03.148Z,29.32
2022-07-26T14:18:06.818Z,30.10
2022-07-26T14:20:10.648Z,28.78
2022-07-26T14:22:13.505Z,28.53
2022-07-26T14:24:16.540Z,29.01
2022-07-26T14:26:21.796Z,28.95
2022-07-26T14:28:24.669Z,28.42
2022-07-26T14:30:28.782Z,28.08
2022-07-26T14:32:31.624Z,30.75
2022-07-26T14:34:34.465Z,31.13
2022-07-26T14:36:37.394Z,28.91
2022-07-26T14:38:41.210Z,29.61
2022-07-26T14:40:44.107Z,30.86
2022-07-26T14:42:47.480Z,30.44
2022-07-26T14:44:50.317Z,29.09
2022-07-26T14:46:55.344Z,29.22
2022-07-26T14:48:58.196Z,30.40
2022-07-26T14:51:09.769Z,30.74
2022-07-26T14:53:13.410Z,30.99
2022-07-26T14:55:21.706Z,29.55
2022-07-26T14:57:27.745Z,30.74
2022-07-26T14:59:30.567Z,31.22
2022-07-26T15:01:33.538Z,32.20
2022-07-26T15:03:38.013Z,32.38
2022-07-26T15:05:41.504Z,31.82
2022-07-26T15:07:46.176Z,32.27
2022-07-26T15:09:49.073Z,30.65
2022-07-26T15:11:52.082Z,30.40
2022-07-26T15:13:54.950Z,29.61
2022-07-26T15:15:57.735Z,29.36
2022-07-26T15:18:00.729Z,29.42
2022-07-26T15:20:06.335Z,30.32
2022-07-26T15:22:09.708Z,30.15
2022-07-26T15:24:14.247Z,30.08
2022-07-26T15:26:17.537Z,30.01
2022-07-26T15:28:20.551Z,29.33
2022-07-26T15:30:23.876Z,29.57
2022-07-26T15:32:28.583Z,29.89
2022-07-26T15:34:31.407Z,29.80
2022-07-26T15:36:35.663Z,30.65
2022-07-26T15:38:40.080Z,31.19
2022-07-26T15:40:43.501Z,32.33
2022-07-26T15:42:47.292Z,32.85
2022-07-26T15:44:51.040Z,33.14
2022-07-26T15:46:54.254Z,32.25
2022-07-26T15:48:57.931Z,32.80
2022-07-26T15:51:01.726Z,32.71
2022-07-26T15:53:05.917Z,31.54
2022-07-26T15:55:09.922Z,28.93
2022-07-26T15:57:12.773Z,29.82
2022-07-26T15:59:15.598Z,29.33
2022-07-26T16:01:18.444Z,28.52
2022-07-26T16:03:23.509Z,28.43
2022-07-26T16:05:26.319Z,29.55
2022-07-26T16:07:29.220Z,30.49
2022-07-26T16:09:33.338Z,31.37
2022-07-26T16:11:36.147Z,31.43
2022-07-26T16:13:39.060Z,31.46
2022-07-26T16:15:42.065Z,32.11
2022-07-26T16:17:44.898Z,32.61
2022-07-26T16:19:47.744Z,33.01
2022-07-26T16:21:50.966Z,32.74
2022-07-26T16:23:53.770Z,32.55
2022-07-26T16:25:57.973Z,31.92
2022-07-26T16:28:00.934Z,32.15
2022-07-26T16:30:03.783Z,31.47
2022-07-26T16:32:08.963Z,31.95
2022-07-26T16:34:12.194Z,30.48
2022-07-26T16:36:15.439Z,29.09
2022-07-26T16:38:18.444Z,29.28
2022-07-26T16:40:23.534Z,29.23
2022-07-26T16:42:27.933Z,30.02
2022-07-26T16:44:30.755Z,31.25
2022-07-26T16:46:33.623Z,31.20
2022-07-26T16:48:36.582Z,31.77
2022-07-26T16:50:39.612Z,31.17
2022-07-26T16:52:42.499Z,32.17
2022-07-26T16:54:45.471Z,32.06
2022-07-26T16:56:48.530Z,32.76
2022-07-26T16:58:52.735Z,32.52
2022-07-26T17:00:55.654Z,32.15
2022-07-26T17:02:58.546Z,30.80
2022-07-26T17:05:01.502Z,31.73
2022-07-26T17:09:27.378Z,33.79
2022-07-26T17:11:30.171Z,32.21
2022-07-26T17:13:33.207Z,33.32
2022-07-26T17:15:37.520Z,31.66
2022-07-26T17:17:41.560Z,30.77
2022-07-26T17:19:46.751Z,31.17
2022-07-26T17:21:49.644Z,31.37
2022-07-26T17:23:53.276Z,31.34
2022-07-26T17:25:56.174Z,32.88
2022-07-26T17:27:59.058Z,33.81
2022-07-26T17:30:06.591Z,34.41
2022-07-26T17:32:11.571Z,33.81
2022-07-26T17:34:14.335Z,32.51
2022-07-26T17:36:21.922Z,33.13
2022-07-26T17:38:24.824Z,32.72
2022-07-26T17:40:31.575Z,32.53
2022-07-26T17:42:35.482Z,33.80
2022-07-26T17:44:38.555Z,32.05
2022-07-26T17:46:41.810Z,32.04
2022-07-26T17:48:47.209Z,32.66
2022-07-26T17:50:50.166Z,33.09
2022-07-26T17:52:53.254Z,32.02
2022-07-26T17:54:57.678Z,33.00
2022-07-26T17:57:00.577Z,33.41
2022-07-26T17:59:03.542Z,32.59
2022-07-26T18:01:06.494Z,32.51
2022-07-26T18:03:09.323Z,30.52
2022-07-26T18:05:13.786Z,30.18
2022-07-26T18:07:16.876Z,29.70
2022-07-26T18:09:19.705Z,30.11
2022-07-26T18:11:22.484Z,29.38
2022-07-26T18:13:25.845Z,28.68
2022-07-26T18:15:28.711Z,27.57
2022-07-26T18:17:31.480Z,26.53
2022-07-26T18:19:34.319Z,26.80
2022-07-26T18:21:38.563Z,26.35
2022-07-26T18:24:00.255Z,25.67
2022-07-26T18:26:04.893Z,25.26
2022-07-26T18:28:09.768Z,25.57
2022-07-26T18:30:13.286Z,25.18
2022-07-26T18:32:16.877Z,25.26
2022-07-26T18:34:20.101Z,24.82
2022-07-26T18:36:23.121Z,24.97
2022-07-26T18:38:27.800Z,25.31
2022-07-26T18:40:32.283Z,24.71
2022-07-26T18:42:36.161Z,24.77
2022-07-26T18:44:39.013Z,24.82
2022-07-26T18:46:41.844Z,24.78
2022-07-26T18:48:44.689Z,24.65
2022-07-26T18:50:47.537Z,24.09
2022-07-26T18:52:50.649Z,24.32
2022-07-26T18:54:55.034Z,24.26
2022-07-26T18:56:57.981Z,24.72
2022-07-26T18:59:00.806Z,24.23
2022-07-26T19:01:03.668Z,24.14
2022-07-26T19:03:06.630Z,23.74
2022-07-26T19:05:10.958Z,23.24
2022-07-26T19:07:13.763Z,23.38
2022-07-26T19:09:16.586Z,23.17
2022-07-26T19:11:20.803Z,23.34
2022-07-26T19:13:23.813Z,22.46
2022-07-26T19:15:26.705Z,23.27
2022-07-26T19:17:30.323Z,21.43
2022-07-26T19:19:35.810Z,21.37
2022-07-26T19:21:40.800Z,22.57
2022-07-26T19:23:43.657Z,23.31
2022-07-26T19:25:47.294Z,23.23
2022-07-26T19:27:51.539Z,23.57
2022-07-26T19:29:54.386Z,23.72
2022-07-26T19:31:57.265Z,23.89
2022-07-26T19:34:00.100Z,23.13
2022-07-26T19:36:02.988Z,23.62
2022-07-26T19:38:06.037Z,23.16
2022-07-26T19:40:09.905Z,22.77
2022-07-26T19:42:12.710Z,23.04
2022-07-26T19:44:17.181Z,22.93
2022-07-26T19:46:20.209Z,22.41
2022-07-26T19:48:23.034Z,23.71
2022-07-26T19:50:25.910Z,24.05
2022-07-26T19:52:35.368Z,24.67
2022-07-26T19:54:41.218Z,24.09
2022-07-26T19:56:44.398Z,24.84
2022-07-26T19:58:49.323Z,24.75
2022-07-26T20:00:53.452Z,24.44
2022-07-26T20:02:56.336Z,25.03
2022-07-26T20:04:59.122Z,24.01
2022-07-26T20:07:01.910Z,24.47
2022-07-26T20:09:05.422Z,22.90
2022-07-26T20:11:24.658Z,21.39
2022-07-26T20:13:27.826Z,23.37
2022-07-26T20:15:30.785Z,13.81
2022-07-26T20:17:48.734Z,23.19
2022-07-26T20:19:53.890Z,23.48
2022-07-26T20:22:05.456Z,23.73
2022-07-26T20:24:08.979Z,23.87
2022-07-26T20:26:13.293Z,23.93
2022-07-26T20:28:16.641Z,23.37
2022-07-26T20:30:19.713Z,23.82
2022-07-26T20:32:22.592Z,23.72
2022-07-26T20:34:26.976Z,23.28
2022-07-26T20:36:29.907Z,22.95
2022-07-26T20:38:32.788Z,22.83
2022-07-26T20:40:35.665Z,23.13
2022-07-26T20:42:41.881Z,23.38
2022-07-26T20:44:47.140Z,23.33
2022-07-26T20:46:51.613Z,22.63
2022-07-26T20:48:55.230Z,22.32
2022-07-26T20:50:59.453Z,22.91
2022-07-26T20:53:02.275Z,22.50
2022-07-26T20:55:05.909Z,22.85
2022-07-26T20:57:08.727Z,22.38
2022-07-26T20:59:11.759Z,22.60
2022-07-26T21:01:15.155Z,22.80
2022-07-26T21:03:18.286Z,22.88
2022-07-26T21:05:21.459Z,22.77
2022-07-26T21:07:58.639Z,22.28
2022-07-26T21:09:49.202Z,21.59
2022-07-26T21:11:52.179Z,22.27
2022-07-26T21:13:55.356Z,22.18
2022-07-26T21:15:58.243Z,22.46
2022-07-26T21:18:01.139Z,22.04
2022-07-26T21:20:04.236Z,21.98
2022-07-26T21:22:07.579Z,22.28
2022-07-26T21:24:12.513Z,22.20
2022-07-26T21:26:15.341Z,22.59
2022-07-26T21:28:18.259Z,21.58
2022-07-26T21:30:21.099Z,22.38
2022-07-26T21:32:26.112Z,22.30
2022-07-26T21:34:34.148Z,22.13
2022-07-26T21:36:40.214Z,22.10
2022-07-26T21:38:43.328Z,22.23
2022-07-26T21:40:47.907Z,21.99
2022-07-26T21:42:50.732Z,22.04
2022-07-26T21:44:53.587Z,21.60
2022-07-26T21:46:56.389Z,21.86
2022-07-26T21:48:59.303Z,22.28
2022-07-26T21:51:02.134Z,22.37
2022-07-26T21:53:05.075Z,22.70
2022-07-26T21:55:08.886Z,22.39
2022-07-26T21:57:13.485Z,22.00
2022-07-26T21:59:16.496Z,22.58
2022-07-26T22:01:19.386Z,22.12
2022-07-26T22:03:22.255Z,22.34
2022-07-26T22:05:38.785Z,21.83
2022-07-26T22:07:41.675Z,21.89
2022-07-26T22:09:44.508Z,22.10
2022-07-26T22:11:47.386Z,22.02
2022-07-26T22:13:51.861Z,21.95
2022-07-26T22:15:54.729Z,21.80
2022-07-26T22:18:00.026Z,20.85
2022-07-26T22:20:04.011Z,21.43
2022-07-26T22:22:06.856Z,21.07
2022-07-26T22:24:09.824Z,21.44
2022-07-26T22:26:12.642Z,21.41
2022-07-26T22:28:17.879Z,21.45
2022-07-26T22:30:24.356Z,21.43
2022-07-26T22:32:27.685Z,21.20
2022-07-26T22:34:30.500Z,21.54
2022-07-26T22:36:33.335Z,21.86
2022-07-26T22:38:36.318Z,21.73
2022-07-26T22:40:40.647Z,21.82
2022-07-26T22:42:44.591Z,21.50
2022-07-26T22:44:47.402Z,21.72
2022-07-26T22:46:51.536Z,21.66
2022-07-26T22:48:54.437Z,21.33
2022-07-26T22:50:57.242Z,20.88
2022-07-26T22:53:01.691Z,21.15
2022-07-26T22:55:05.987Z,21.21
2022-07-26T22:57:08.843Z,21.15
2022-07-26T22:59:11.926Z,20.97
2022-07-26T23:01:16.388Z,20.96
2022-07-26T23:03:21.680Z,21.33
2022-07-26T23:05:30.746Z,21.86
2022-07-26T23:07:48.055Z,22.20
2022-07-26T23:09:51.351Z,22.30
2022-07-26T23:11:54.130Z,22.03
2022-07-26T23:13:59.016Z,22.02
2022-07-26T23:16:02.344Z,22.10
2022-07-26T23:18:05.387Z,22.23
2022-07-26T23:20:11.623Z,22.45
2022-07-26T23:22:14.803Z,21.72
2022-07-26T23:24:17.769Z,22.49
2022-07-26T23:26:20.674Z,22.63
2022-07-26T23:28:36.029Z,22.95
2022-07-26T23:30:41.088Z,22.51
2022-07-26T23:32:43.964Z,21.75
2022-07-26T23:34:46.876Z,22.07
2022-07-26T23:36:51.147Z,21.48
2022-07-26T23:38:55.110Z,21.27
2022-07-26T23:40:58.077Z,22.38
2022-07-26T23:43:01.172Z,22.50
2022-07-26T23:45:04.550Z,22.09
2022-07-26T23:47:07.601Z,22.35
2022-07-26T23:49:10.883Z,22.68
2022-07-26T23:51:14.234Z,21.98
2022-07-26T23:53:18.470Z,22.67
2022-07-26T23:55:32.909Z,22.87
2022-07-26T23:57:38.734Z,23.14
2022-07-26T23:59:41.591Z,23.40
